createdAt,value
2018-03-23T00:00:36.394Z,3.35
2018-03-23T00:03:03.771Z,3.05
2018-03-23T00:05:30.669Z,2.67
2018-03-23T00:07:58.029Z,7.72
2018-03-23T00:10:24.673Z,1.90
2018-03-23T00:12:51.981Z,3.10
2018-03-23T00:15:19.342Z,3.95
2018-03-23T00:17:46.624Z,7.70
2018-03-23T00:20:13.072Z,1.87
2018-03-23T00:22:40.053Z,1.80
2018-03-23T00:25:06.692Z,1.35
2018-03-23T00:27:33.325Z,3.40
2018-03-23T00:29:59.808Z,1.40
2018-03-23T00:32:26.535Z,1.30
2018-03-23T00:34:53.749Z,1.52
2018-03-23T00:37:20.724Z,2.37
2018-03-23T00:39:48.138Z,1.50
2018-03-23T00:42:15.062Z,1.10
2018-03-23T00:44:42.703Z,1.35
2018-03-23T00:47:10.189Z,1.20
2018-03-23T00:49:37.448Z,1.05
2018-03-23T00:52:04.480Z,1.15
2018-03-23T00:54:31.254Z,0.80
2018-03-23T00:56:58.432Z,1.17
2018-03-23T00:59:26.376Z,1.75
2018-03-23T01:01:53.608Z,2.05
2018-03-23T01:04:20.372Z,1.95
2018-03-23T01:06:47.403Z,1.23
2018-03-23T01:09:14.798Z,1.25
2018-03-23T01:11:42.699Z,3.28
2018-03-23T01:14:09.314Z,1.48
2018-03-23T01:16:36.386Z,1.45
2018-03-23T01:19:03.372Z,1.27
2018-03-23T01:21:31.339Z,1.42
2018-03-23T01:23:57.969Z,1.40
2018-03-23T01:26:25.255Z,2.08
2018-03-23T01:28:52.972Z,1.55
2018-03-23T01:31:19.598Z,1.58
2018-03-23T01:33:46.103Z,2.87
2018-03-23T01:36:13.603Z,2.15
2018-03-23T01:38:40.593Z,2.05
2018-03-23T01:41:09.033Z,3.28
2018-03-23T01:43:35.690Z,2.60
2018-03-23T01:46:02.631Z,2.20
2018-03-23T01:48:29.820Z,1.85
2018-03-23T01:50:56.222Z,2.67
2018-03-23T01:53:43.636Z,2.95
2018-03-23T01:56:10.821Z,3.05
2018-03-23T01:58:37.909Z,2.87
2018-03-23T02:01:04.517Z,2.83
2018-03-23T02:03:31.689Z,2.40
2018-03-23T02:05:58.788Z,3.90
2018-03-23T02:08:25.444Z,3.05
2018-03-23T02:10:52.921Z,3.35
2018-03-23T02:13:20.574Z,2.40
2018-03-23T02:15:48.802Z,3.03
2018-03-23T02:18:16.989Z,3.75
2018-03-23T02:20:43.962Z,3.25
2018-03-23T02:23:11.573Z,2.42
2018-03-23T02:25:38.473Z,2.72
2018-03-23T02:28:05.347Z,3.03
2018-03-23T02:30:32.282Z,3.03
2018-03-23T02:33:00.532Z,2.70
2018-03-23T02:35:27.610Z,5.32
2018-03-23T02:37:54.663Z,3.35
2018-03-23T02:40:21.176Z,2.87
2018-03-23T02:42:48.781Z,3.65
2018-03-23T02:45:15.725Z,3.00
2018-03-23T02:47:42.725Z,5.62
2018-03-23T02:50:09.825Z,4.47
2018-03-23T02:52:37.044Z,5.00
2018-03-23T02:55:04.018Z,4.18
2018-03-23T02:57:30.658Z,2.95
2018-03-23T02:59:58.000Z,2.50
2018-03-23T03:02:27.663Z,2.87
2018-03-23T03:04:54.768Z,2.92
2018-03-23T03:07:22.431Z,3.72
2018-03-23T03:09:49.321Z,4.62
2018-03-23T03:12:16.349Z,3.85
2018-03-23T03:14:43.651Z,3.22
2018-03-23T03:17:10.478Z,5.78
2018-03-23T03:19:37.353Z,7.30
2018-03-23T03:22:03.957Z,6.43
2018-03-23T03:24:30.998Z,12.40
2018-03-23T03:26:59.102Z,7.90
2018-03-23T03:29:26.345Z,10.15
2018-03-23T03:31:53.790Z,10.57
2018-03-23T03:34:20.718Z,8.18
2018-03-23T03:36:47.460Z,10.35
2018-03-23T03:39:15.049Z,10.88
2018-03-23T03:41:42.007Z,11.90
2018-03-23T03:44:08.617Z,8.70
2018-03-23T03:46:35.367Z,7.72
2018-03-23T03:49:03.293Z,5.47
2018-03-23T03:51:30.302Z,5.28
2018-03-23T03:53:56.774Z,5.72
2018-03-23T03:56:23.183Z,4.30
2018-03-23T03:58:49.938Z,4.65
2018-03-23T04:01:17.502Z,5.12
2018-03-23T04:03:44.955Z,5.05
2018-03-23T04:06:12.545Z,4.65
2018-03-23T04:08:39.504Z,5.22
2018-03-23T04:11:06.586Z,7.40
2018-03-23T04:13:33.236Z,5.75
2018-03-23T04:16:01.828Z,5.65
2018-03-23T04:18:28.854Z,5.15
2018-03-23T04:20:56.174Z,5.90
2018-03-23T04:23:23.030Z,8.15
2018-03-23T04:25:52.741Z,7.95
2018-03-23T04:28:20.101Z,7.40
2018-03-23T04:30:48.620Z,6.65
2018-03-23T04:33:15.375Z,6.28
2018-03-23T04:35:42.433Z,9.43
2018-03-23T04:38:09.438Z,8.70
2018-03-23T04:40:36.364Z,7.22
2018-03-23T04:43:03.578Z,10.27
2018-03-23T04:45:30.098Z,8.23
2018-03-23T04:47:57.442Z,7.93
2018-03-23T04:50:24.352Z,7.25
2018-03-23T04:52:51.235Z,10.13
2018-03-23T04:55:18.766Z,9.70
2018-03-23T04:57:45.410Z,9.05
2018-03-23T05:00:15.320Z,10.80
2018-03-23T05:02:42.704Z,11.50
2018-03-23T05:05:09.756Z,9.43
2018-03-23T05:07:36.228Z,9.35
2018-03-23T05:10:03.313Z,8.05
2018-03-23T05:12:29.994Z,7.97
2018-03-23T05:14:56.788Z,6.70
2018-03-23T05:17:23.347Z,11.30
2018-03-23T05:19:49.919Z,6.40
2018-03-23T05:22:16.909Z,6.45
2018-03-23T05:24:43.996Z,5.60
2018-03-23T05:27:11.698Z,6.40
2018-03-23T05:29:38.325Z,9.07
2018-03-23T05:32:04.999Z,7.35
2018-03-23T05:34:32.343Z,7.12
2018-03-23T05:36:58.805Z,8.38
2018-03-23T05:39:25.667Z,10.30
2018-03-23T05:41:52.455Z,8.65
2018-03-23T05:44:19.411Z,7.82
2018-03-23T05:46:46.543Z,8.18
2018-03-23T05:49:13.747Z,9.48
2018-03-23T05:51:41.282Z,10.60
2018-03-23T05:54:08.042Z,10.15
2018-03-23T05:56:34.896Z,14.95
2018-03-23T05:59:01.423Z,10.02
2018-03-23T06:01:27.989Z,11.15
2018-03-23T06:03:54.482Z,14.15
2018-03-23T06:06:21.770Z,13.93
2018-03-23T06:08:48.806Z,14.13
2018-03-23T06:11:15.235Z,12.73
2018-03-23T06:13:42.260Z,15.13
2018-03-23T06:16:08.995Z,13.88
2018-03-23T06:18:35.442Z,12.80
2018-03-23T06:21:02.803Z,16.85
2018-03-23T06:23:29.685Z,16.70
2018-03-23T06:25:56.584Z,14.70
2018-03-23T06:28:23.523Z,14.90
2018-03-23T06:30:50.010Z,13.40
2018-03-23T06:33:16.735Z,14.48
2018-03-23T06:35:43.684Z,16.33
2018-03-23T06:38:10.204Z,15.93
2018-03-23T06:40:36.674Z,12.63
2018-03-23T06:43:03.512Z,14.68
2018-03-23T06:45:30.686Z,15.07
2018-03-23T06:47:57.284Z,14.48
2018-03-23T06:50:24.252Z,15.07
2018-03-23T06:52:51.601Z,13.68
2018-03-23T06:55:18.582Z,14.73
2018-03-23T06:57:45.101Z,17.10
2018-03-23T07:00:12.446Z,16.52
2018-03-23T07:02:40.883Z,16.50
2018-03-23T07:05:08.177Z,18.77
2018-03-23T07:07:34.931Z,20.00
2018-03-23T07:10:04.492Z,16.48
2018-03-23T07:12:31.909Z,21.80
2018-03-23T07:14:59.538Z,15.52
2018-03-23T07:17:26.762Z,15.27
2018-03-23T07:19:53.809Z,13.18
2018-03-23T07:22:20.582Z,13.10
2018-03-23T07:24:47.590Z,20.05
2018-03-23T07:27:14.291Z,20.35
2018-03-23T07:29:41.660Z,15.70
2018-03-23T07:32:08.564Z,15.93
2018-03-23T07:34:35.516Z,12.82
2018-03-23T07:37:02.303Z,19.37
2018-03-23T07:39:29.519Z,21.37
2018-03-23T07:41:57.677Z,22.30
2018-03-23T07:44:24.278Z,18.05
2018-03-23T07:46:50.937Z,18.90
2018-03-23T07:49:17.631Z,16.80
2018-03-23T07:51:44.677Z,17.73
2018-03-23T07:54:11.331Z,17.67
2018-03-23T07:56:38.348Z,17.25
2018-03-23T07:59:05.228Z,15.18
2018-03-23T08:01:31.735Z,16.92
2018-03-23T08:03:58.536Z,17.30
2018-03-23T08:06:25.378Z,19.77
2018-03-23T08:08:52.566Z,24.80
2018-03-23T08:11:19.384Z,22.50
2018-03-23T08:13:46.001Z,25.33
2018-03-23T08:16:12.902Z,20.10
2018-03-23T08:18:39.441Z,19.83
2018-03-23T08:21:05.987Z,19.27
2018-03-23T08:23:33.348Z,18.45
2018-03-23T08:26:00.259Z,37.08
2018-03-23T08:28:26.788Z,26.00
2018-03-23T08:30:53.609Z,24.10
2018-03-23T08:33:20.488Z,19.05
2018-03-23T08:35:47.529Z,19.45
2018-03-23T08:38:14.694Z,21.62
2018-03-23T08:40:41.988Z,24.12
2018-03-23T08:43:08.884Z,27.40
2018-03-23T08:45:35.874Z,24.90
2018-03-23T08:48:02.728Z,25.12
2018-03-23T08:50:29.525Z,25.88
2018-03-23T08:52:56.219Z,20.70
2018-03-23T08:55:29.989Z,19.83
2018-03-23T08:57:56.598Z,20.83
2018-03-23T09:00:23.342Z,19.55
2018-03-23T09:02:49.843Z,19.67
2018-03-23T09:05:16.664Z,23.17
2018-03-23T09:07:43.064Z,19.17
2018-03-23T09:10:09.590Z,17.05
2018-03-23T09:21:33.087Z,22.17
2018-03-23T09:23:59.653Z,12.90
2018-03-23T09:26:26.337Z,14.00
2018-03-23T09:28:53.464Z,11.07
2018-03-23T09:31:19.926Z,12.65
2018-03-23T09:33:46.595Z,17.17
2018-03-23T09:36:13.381Z,19.23
2018-03-23T09:38:40.007Z,13.95
2018-03-23T09:41:06.882Z,17.62
2018-03-23T09:43:33.520Z,13.73
2018-03-23T09:46:00.266Z,14.57
2018-03-23T09:48:27.159Z,11.77
2018-03-23T09:50:54.196Z,10.05
2018-03-23T09:53:21.058Z,7.65
2018-03-23T09:55:48.059Z,7.90
2018-03-23T09:58:15.206Z,10.18
2018-03-23T10:00:41.982Z,6.62
2018-03-23T10:03:09.098Z,11.93
2018-03-23T10:05:36.227Z,7.53
2018-03-23T10:08:02.861Z,8.77
2018-03-23T10:10:30.060Z,9.82
2018-03-23T10:12:57.083Z,10.38
2018-03-23T10:15:23.838Z,13.75
2018-03-23T10:17:51.198Z,10.27
2018-03-23T10:20:18.119Z,12.18
2018-03-23T10:22:44.543Z,12.50
2018-03-23T10:25:10.962Z,10.50
2018-03-23T10:27:37.337Z,9.48
2018-03-23T10:30:03.925Z,9.75
2018-03-23T10:32:30.886Z,8.60
2018-03-23T10:34:57.543Z,8.88
2018-03-23T10:37:24.680Z,15.55
2018-03-23T10:39:51.256Z,12.88
2018-03-23T10:42:17.882Z,13.45
2018-03-23T10:44:44.521Z,13.23
2018-03-23T10:47:11.337Z,13.38
2018-03-23T10:49:38.500Z,16.80
2018-03-23T10:52:05.912Z,13.13
2018-03-23T10:54:32.531Z,15.23
2018-03-23T10:56:59.012Z,10.82
2018-03-23T10:59:25.892Z,10.65
2018-03-23T11:01:58.709Z,12.18
2018-03-23T11:04:25.854Z,11.23
2018-03-23T11:06:52.549Z,11.20
2018-03-23T11:09:19.469Z,12.75
2018-03-23T11:11:45.853Z,11.23
2018-03-23T11:14:13.469Z,11.60
2018-03-23T11:16:40.464Z,11.55
2018-03-23T11:19:07.205Z,12.48
2018-03-23T11:21:33.767Z,12.43
2018-03-23T11:24:00.766Z,14.98
2018-03-23T11:26:27.298Z,14.90
2018-03-23T11:28:54.449Z,13.88
2018-03-23T11:31:21.425Z,13.70
2018-03-23T11:33:48.406Z,13.73
2018-03-23T11:36:15.184Z,14.35
2018-03-23T11:38:41.778Z,16.70
2018-03-23T11:41:08.924Z,17.77
2018-03-23T11:43:35.817Z,15.07
2018-03-23T11:46:02.748Z,14.45
2018-03-23T11:48:29.319Z,17.58
2018-03-23T11:50:55.962Z,14.60
2018-03-23T11:53:23.053Z,12.10
2018-03-23T11:55:49.690Z,14.43
2018-03-23T11:58:17.045Z,11.52
2018-03-23T12:00:43.956Z,9.65
2018-03-23T12:03:10.687Z,13.23
2018-03-23T12:05:37.539Z,10.82
2018-03-23T12:08:04.798Z,11.38
2018-03-23T12:10:31.569Z,10.93
2018-03-23T12:12:58.245Z,15.02
2018-03-23T12:15:25.881Z,12.77
2018-03-23T12:17:52.702Z,16.20
2018-03-23T12:20:19.772Z,11.00
2018-03-23T12:22:46.905Z,12.75
2018-03-23T12:25:13.700Z,20.35
2018-03-23T12:27:40.698Z,19.90
2018-03-23T12:30:07.759Z,19.02
2018-03-23T12:32:34.655Z,15.00
2018-03-23T12:35:01.230Z,13.70
2018-03-23T12:37:27.703Z,17.55
2018-03-23T12:39:54.675Z,14.77
2018-03-23T12:42:21.305Z,15.30
2018-03-23T12:44:47.738Z,13.52
2018-03-23T12:47:14.570Z,14.48
2018-03-23T12:49:41.470Z,14.48
2018-03-23T12:52:08.185Z,13.43
2018-03-23T12:54:34.890Z,13.23
2018-03-23T12:57:01.750Z,13.95
2018-03-23T12:59:28.479Z,14.68
2018-03-23T13:01:55.411Z,15.75
2018-03-23T13:04:22.022Z,11.50
2018-03-23T13:06:48.390Z,16.80
2018-03-23T13:09:16.021Z,12.60
2018-03-23T13:11:42.916Z,14.63
2018-03-23T13:14:10.049Z,11.95
2018-03-23T13:16:36.507Z,12.20
2018-03-23T13:19:03.057Z,12.45
2018-03-23T13:21:29.928Z,16.33
2018-03-23T13:23:56.661Z,15.70
2018-03-23T13:26:23.332Z,13.38
2018-03-23T13:28:49.926Z,12.35
2018-03-23T13:31:16.951Z,18.15
2018-03-23T13:33:44.128Z,13.95
2018-03-23T13:36:11.156Z,15.30
2018-03-23T13:38:37.594Z,16.02
2018-03-23T13:41:04.024Z,12.32
2018-03-23T13:43:30.916Z,12.48
2018-03-23T13:45:57.968Z,15.32
2018-03-23T13:48:24.576Z,16.37
2018-03-23T13:50:51.208Z,18.40
2018-03-23T13:53:18.117Z,22.95
2018-03-23T13:55:44.525Z,26.90
2018-03-23T13:58:11.374Z,20.67
2018-03-23T14:00:44.052Z,21.67
2018-03-23T14:03:10.750Z,28.70
2018-03-23T14:05:37.432Z,25.65
2018-03-23T14:08:03.872Z,25.02
2018-03-23T14:10:30.876Z,22.60
2018-03-23T14:12:57.534Z,24.42
2018-03-23T14:15:24.005Z,22.10
2018-03-23T14:17:50.914Z,19.37
2018-03-23T14:20:17.633Z,17.67
2018-03-23T14:22:44.165Z,14.07
2018-03-23T14:25:10.743Z,18.42
2018-03-23T14:27:37.473Z,18.62
2018-03-23T14:30:04.182Z,22.60
2018-03-23T14:32:30.618Z,31.17
2018-03-23T14:34:57.094Z,28.12
2018-03-23T14:37:23.802Z,27.83
2018-03-23T14:39:50.660Z,25.73
2018-03-23T14:42:17.673Z,28.08
2018-03-23T14:44:44.530Z,27.90
2018-03-23T14:47:11.359Z,28.80
2018-03-23T14:49:37.942Z,43.87
2018-03-23T14:52:05.010Z,38.38
2018-03-23T14:54:31.728Z,30.35
2018-03-23T14:56:58.506Z,31.85
2018-03-23T14:59:25.314Z,38.67
2018-03-23T15:01:51.800Z,35.25
2018-03-23T15:04:18.380Z,32.30
2018-03-23T15:06:44.904Z,36.28
2018-03-23T15:09:11.938Z,37.45
2018-03-23T15:11:38.843Z,35.15
2018-03-23T15:14:11.360Z,38.10
2018-03-23T15:16:38.201Z,32.42
2018-03-23T15:19:05.141Z,25.02
2018-03-23T15:21:31.647Z,26.27
2018-03-23T15:23:58.322Z,28.30
2018-03-23T15:26:24.992Z,27.00
2018-03-23T15:28:51.678Z,25.67
2018-03-23T15:31:18.373Z,24.95
2018-03-23T15:33:45.170Z,21.83
2018-03-23T15:36:11.977Z,24.40
2018-03-23T15:38:38.889Z,21.00
2018-03-23T15:41:05.934Z,25.02
2018-03-23T15:43:32.634Z,23.45
2018-03-23T15:45:59.250Z,30.60
2018-03-23T15:48:26.981Z,27.70
2018-03-23T15:50:53.797Z,27.37
2018-03-23T15:53:20.567Z,29.52
2018-03-23T15:55:47.270Z,32.20
2018-03-23T15:58:14.903Z,29.35
2018-03-23T16:00:41.783Z,29.40
2018-03-23T16:03:08.397Z,27.40
2018-03-23T16:05:35.222Z,30.02
2018-03-23T16:08:01.832Z,30.92
2018-03-23T16:10:28.768Z,33.53
2018-03-23T16:12:55.681Z,27.08
2018-03-23T16:15:22.400Z,26.83
2018-03-23T16:17:48.896Z,24.98
2018-03-23T16:20:15.894Z,27.58
2018-03-23T16:22:42.697Z,21.52
2018-03-23T16:25:10.895Z,23.12
2018-03-23T16:27:37.859Z,22.58
2018-03-23T16:30:04.657Z,25.02
2018-03-23T16:32:31.272Z,23.80
2018-03-23T16:34:57.914Z,24.37
2018-03-23T16:37:24.879Z,22.92
2018-03-23T16:39:51.798Z,22.00
2018-03-23T16:42:18.781Z,31.87
2018-03-23T16:44:45.602Z,31.17
2018-03-23T16:47:12.138Z,27.87
2018-03-23T16:49:40.444Z,23.95
2018-03-23T16:52:07.270Z,31.02
2018-03-23T16:54:34.824Z,31.02
2018-03-23T16:57:01.815Z,29.37
2018-03-23T16:59:28.582Z,29.85
2018-03-23T17:01:55.470Z,28.15
2018-03-23T17:04:23.798Z,19.77
2018-03-23T17:06:51.089Z,23.87
2018-03-23T17:09:17.878Z,22.23
2018-03-23T17:11:45.143Z,20.55
2018-03-23T17:14:13.519Z,20.73
2018-03-23T17:16:41.209Z,19.87
2018-03-23T17:19:09.364Z,26.17
2018-03-23T17:21:36.170Z,26.52
2018-03-23T17:24:03.430Z,19.83
2018-03-23T17:26:30.299Z,18.50
2018-03-23T17:28:58.870Z,24.00
2018-03-23T17:31:25.927Z,21.98
2018-03-23T17:33:52.853Z,25.08
2018-03-23T17:36:19.588Z,20.83
2018-03-23T17:38:46.058Z,20.23
2018-03-23T17:41:12.709Z,24.85
2018-03-23T17:43:40.051Z,28.12
2018-03-23T17:46:06.963Z,22.45
2018-03-23T17:48:33.670Z,23.90
2018-03-23T17:51:00.461Z,22.13
2018-03-23T17:53:27.048Z,24.40
2018-03-23T17:55:53.799Z,23.00
2018-03-23T17:58:21.596Z,26.73
2018-03-23T18:00:48.571Z,30.25
2018-03-23T18:03:16.892Z,23.95
2018-03-23T18:05:43.990Z,28.08
2018-03-23T18:08:11.447Z,23.27
2018-03-23T18:10:38.764Z,22.13
2018-03-23T18:13:07.884Z,23.55
2018-03-23T18:15:34.768Z,29.70
2018-03-23T18:18:02.673Z,22.48
2018-03-23T18:20:29.766Z,16.58
2018-03-23T18:22:56.551Z,14.50
2018-03-23T18:25:23.504Z,14.25
2018-03-23T18:27:50.405Z,18.67
2018-03-23T18:30:17.168Z,15.85
2018-03-23T18:32:43.956Z,13.85
2018-03-23T18:35:11.484Z,13.27
2018-03-23T18:37:39.892Z,14.02
2018-03-23T18:40:07.420Z,11.85
2018-03-23T18:42:34.470Z,13.00
2018-03-23T18:45:02.482Z,15.00
2018-03-23T18:47:30.434Z,12.07
2018-03-23T18:49:58.369Z,12.93
2018-03-23T18:52:26.421Z,14.48
2018-03-23T18:54:53.462Z,13.25
2018-03-23T18:57:23.690Z,11.75
2018-03-23T18:59:50.661Z,11.55
2018-03-23T19:02:18.082Z,11.57
2018-03-23T19:04:45.109Z,11.30
2018-03-23T19:07:11.507Z,13.27
2018-03-23T19:09:41.250Z,11.73
2018-03-23T19:12:08.228Z,10.93
2018-03-23T19:14:35.121Z,11.80
2018-03-23T19:17:02.598Z,11.63
2018-03-23T19:19:30.071Z,12.85
2018-03-23T19:21:56.718Z,11.68
2018-03-23T19:24:23.434Z,11.02
2018-03-23T19:26:50.093Z,12.10
2018-03-23T19:29:16.690Z,12.73
2018-03-23T19:31:43.200Z,11.02
2018-03-23T19:34:10.199Z,12.60
2018-03-23T19:36:37.188Z,11.73
2018-03-23T19:39:04.042Z,11.82
2018-03-23T19:41:31.042Z,12.80
2018-03-23T19:43:57.546Z,11.20
2018-03-23T19:46:24.061Z,12.85
2018-03-23T19:48:50.585Z,13.10
2018-03-23T19:51:17.741Z,13.30
2018-03-23T19:53:44.863Z,12.15
2018-03-23T19:56:11.650Z,13.50
2018-03-23T19:58:38.353Z,12.37
2018-03-23T20:01:05.739Z,13.57
2018-03-23T20:03:32.607Z,14.02
2018-03-23T20:06:00.405Z,13.88
2018-03-23T20:08:27.390Z,11.90
2018-03-23T20:10:55.125Z,13.93
2018-03-23T20:13:24.765Z,13.57
2018-03-23T20:15:52.070Z,11.82
2018-03-23T20:18:23.023Z,12.93
2018-03-23T20:20:56.411Z,12.93
2018-03-23T20:23:23.514Z,11.55
2018-03-23T20:25:50.605Z,11.15
2018-03-23T20:28:23.284Z,10.10
2018-03-23T20:30:50.110Z,11.23
2018-03-23T20:33:17.231Z,11.50
2018-03-23T20:35:44.013Z,10.50
2018-03-23T20:38:10.510Z,9.73
2018-03-23T20:40:37.099Z,9.63
2018-03-23T20:43:04.085Z,10.65
2018-03-23T20:45:30.651Z,10.20
2018-03-23T20:47:57.511Z,10.15
2018-03-23T20:50:24.189Z,11.35
2018-03-23T20:52:50.830Z,10.68
2018-03-23T20:55:17.611Z,10.85
2018-03-23T20:57:44.574Z,9.57
2018-03-23T21:00:12.006Z,13.45
2018-03-23T21:02:38.966Z,11.18
2018-03-23T21:05:05.710Z,12.43
2018-03-23T21:07:32.244Z,11.15
2018-03-23T21:09:58.999Z,11.35
2018-03-23T21:12:26.138Z,10.77
2018-03-23T21:14:53.378Z,10.98
2018-03-23T21:17:20.946Z,11.98
2018-03-23T21:19:47.927Z,12.15
2018-03-23T21:22:14.642Z,12.77
2018-03-23T21:24:41.117Z,11.52
2018-03-23T21:27:07.844Z,10.15
2018-03-23T21:29:34.393Z,11.50
2018-03-23T21:32:01.233Z,10.65
2018-03-23T21:34:28.058Z,11.63
2018-03-23T21:36:54.888Z,11.95
2018-03-23T21:39:21.398Z,9.93
2018-03-23T21:41:47.932Z,8.70
2018-03-23T21:44:14.454Z,9.48
2018-03-23T21:46:41.643Z,11.95
2018-03-23T21:49:15.692Z,9.75
2018-03-23T21:51:42.749Z,15.00
2018-03-23T21:54:10.186Z,9.75
2018-03-23T21:56:37.145Z,9.82
2018-03-23T21:59:04.058Z,12.27
2018-03-23T22:01:31.213Z,9.07
2018-03-23T22:03:58.231Z,9.40
2018-03-23T22:06:25.226Z,11.18
2018-03-23T22:08:52.261Z,9.68
2018-03-23T22:11:19.282Z,10.65
2018-03-23T22:13:46.409Z,9.73
2018-03-23T22:16:13.524Z,8.30
2018-03-23T22:18:40.415Z,9.98
2018-03-23T22:21:07.087Z,8.95
2018-03-23T22:23:33.687Z,10.25
2018-03-23T22:26:00.540Z,9.55
2018-03-23T22:28:27.386Z,9.75
2018-03-23T22:30:54.009Z,10.07
2018-03-23T22:33:20.747Z,9.95
2018-03-23T22:35:47.271Z,9.27
2018-03-23T22:38:14.386Z,9.45
2018-03-23T22:40:41.270Z,9.35
2018-03-23T22:43:07.875Z,8.70
2018-03-23T22:45:34.268Z,9.77
2018-03-23T22:48:00.775Z,11.50
2018-03-23T22:50:27.262Z,11.35
2018-03-23T22:52:54.163Z,11.68
2018-03-23T22:55:20.926Z,10.75
2018-03-23T22:57:47.814Z,11.30
2018-03-23T23:00:14.663Z,10.15
2018-03-23T23:02:41.264Z,11.93
2018-03-23T23:05:08.169Z,12.00
2018-03-23T23:07:35.081Z,10.65
2018-03-23T23:10:01.576Z,13.27
2018-03-23T23:12:28.192Z,12.88
2018-03-23T23:14:54.877Z,11.48
2018-03-23T23:17:22.127Z,10.77
2018-03-23T23:19:49.382Z,11.10
2018-03-23T23:22:16.261Z,10.88
2018-03-23T23:24:42.901Z,11.43
2018-03-23T23:27:09.986Z,13.60
2018-03-23T23:29:37.233Z,12.07
2018-03-23T23:32:04.013Z,10.27
2018-03-23T23:34:31.121Z,9.88
2018-03-23T23:36:57.698Z,9.73
2018-03-23T23:39:24.602Z,10.13
2018-03-23T23:41:51.411Z,9.55
2018-03-23T23:44:18.339Z,8.93
2018-03-23T23:46:44.891Z,9.27
2018-03-23T23:49:11.425Z,9.65
2018-03-23T23:51:38.005Z,9.07
2018-03-23T23:54:04.598Z,9.00
2018-03-23T23:56:31.198Z,9.50
2018-03-23T23:58:57.926Z,8.77
